sensor_id;sensor_type;location;lat;lon;timestamp;P1;durP1;ratioP1;P2;durP2;ratioP2
7116;SDS011;3600;48.568;7.870;2022-08-04T00:01:22;2.60;;;2.40;;
7116;SDS011;3600;48.568;7.870;2022-08-04T00:04:22;3.15;;;2.60;;
7116;SDS011;3600;48.568;7.870;2022-08-04T00:07:03;4.00;;;3.08;;
7116;SDS011;3600;48.568;7.870;2022-08-04T00:09:48;3.38;;;2.17;;
7116;SDS011;3600;48.568;7.870;2022-08-04T00:12:15;2.58;;;2.30;;
7116;SDS011;3600;48.568;7.870;2022-08-04T00:14:45;2.47;;;2.28;;
7116;SDS011;3600;48.568;7.870;2022-08-04T00:17:18;2.30;;;2.17;;
7116;SDS011;3600;48.568;7.870;2022-08-04T00:19:47;3.53;;;2.08;;
7116;SDS011;3600;48.568;7.870;2022-08-04T00:22:15;3.40;;;2.58;;
7116;SDS011;3600;48.568;7.870;2022-08-04T00:24:45;2.47;;;2.28;;
7116;SDS011;3600;48.568;7.870;2022-08-04T00:27:13;3.28;;;2.53;;
7116;SDS011;3600;48.568;7.870;2022-08-04T00:29:40;2.83;;;2.42;;
7116;SDS011;3600;48.568;7.870;2022-08-04T00:32:08;4.10;;;2.40;;
7116;SDS011;3600;48.568;7.870;2022-08-04T00:34:35;2.42;;;2.22;;
7116;SDS011;3600;48.568;7.870;2022-08-04T00:37:02;2.80;;;2.22;;
7116;SDS011;3600;48.568;7.870;2022-08-04T00:39:32;2.63;;;2.42;;
7116;SDS011;3600;48.568;7.870;2022-08-04T00:50:23;2.72;;;2.50;;
7116;SDS011;3600;48.568;7.870;2022-08-04T00:53:13;4.93;;;2.25;;
7116;SDS011;3600;48.568;7.870;2022-08-04T00:58:46;3.35;;;2.20;;
7116;SDS011;3600;48.568;7.870;2022-08-04T01:07:07;2.38;;;2.17;;
7116;SDS011;3600;48.568;7.870;2022-08-04T01:09:54;2.38;;;2.17;;
7116;SDS011;3600;48.568;7.870;2022-08-04T01:12:40;2.50;;;2.30;;
7116;SDS011;3600;48.568;7.870;2022-08-04T01:24:17;2.50;;;2.33;;
7116;SDS011;3600;48.568;7.870;2022-08-04T01:27:10;3.17;;;2.80;;
7116;SDS011;3600;48.568;7.870;2022-08-04T01:29:55;2.63;;;2.45;;
7116;SDS011;3600;48.568;7.870;2022-08-04T01:32:26;3.03;;;2.83;;
7116;SDS011;3600;48.568;7.870;2022-08-04T01:37:40;3.40;;;2.78;;
7116;SDS011;3600;48.568;7.870;2022-08-04T01:40:16;3.38;;;3.08;;
7116;SDS011;3600;48.568;7.870;2022-08-04T01:42:43;2.88;;;2.40;;
7116;SDS011;3600;48.568;7.870;2022-08-04T01:45:11;2.75;;;2.55;;
7116;SDS011;3600;48.568;7.870;2022-08-04T01:47:41;2.88;;;2.67;;
7116;SDS011;3600;48.568;7.870;2022-08-04T01:50:14;2.97;;;2.78;;
7116;SDS011;3600;48.568;7.870;2022-08-04T01:52:42;2.35;;;2.25;;
7116;SDS011;3600;48.568;7.870;2022-08-04T01:55:16;2.80;;;2.58;;
7116;SDS011;3600;48.568;7.870;2022-08-04T01:57:44;3.03;;;2.83;;
7116;SDS011;3600;48.568;7.870;2022-08-04T02:00:14;4.50;;;2.58;;
7116;SDS011;3600;48.568;7.870;2022-08-04T02:02:44;3.08;;;2.75;;
7116;SDS011;3600;48.568;7.870;2022-08-04T02:05:13;4.10;;;2.80;;
7116;SDS011;3600;48.568;7.870;2022-08-04T02:07:46;2.92;;;2.72;;
7116;SDS011;3600;48.568;7.870;2022-08-04T02:10:34;3.20;;;3.00;;
7116;SDS011;3600;48.568;7.870;2022-08-04T02:13:09;3.08;;;2.50;;
7116;SDS011;3600;48.568;7.870;2022-08-04T02:16:00;2.90;;;2.70;;
7116;SDS011;3600;48.568;7.870;2022-08-04T02:21:05;2.70;;;2.50;;
7116;SDS011;3600;48.568;7.870;2022-08-04T02:23:36;2.70;;;2.50;;
7116;SDS011;3600;48.568;7.870;2022-08-04T02:26:15;3.17;;;2.85;;
7116;SDS011;3600;48.568;7.870;2022-08-04T02:28:53;3.00;;;2.70;;
7116;SDS011;3600;48.568;7.870;2022-08-04T02:34:00;2.10;;;2.00;;
7116;SDS011;3600;48.568;7.870;2022-08-04T02:36:37;3.90;;;2.60;;
7116;SDS011;3600;48.568;7.870;2022-08-04T02:39:07;2.90;;;2.70;;
7116;SDS011;3600;48.568;7.870;2022-08-04T02:41:35;2.88;;;2.55;;
7116;SDS011;3600;48.568;7.870;2022-08-04T02:44:03;2.92;;;2.70;;
7116;SDS011;3600;48.568;7.870;2022-08-04T02:46:33;2.83;;;2.63;;
7116;SDS011;3600;48.568;7.870;2022-08-04T02:49:01;3.22;;;2.75;;
7116;SDS011;3600;48.568;7.870;2022-08-04T02:51:32;2.83;;;2.63;;
7116;SDS011;3600;48.568;7.870;2022-08-04T02:54:03;2.90;;;2.70;;
7116;SDS011;3600;48.568;7.870;2022-08-04T02:56:32;3.53;;;2.80;;
7116;SDS011;3600;48.568;7.870;2022-08-04T02:59:07;3.42;;;2.90;;
7116;SDS011;3600;48.568;7.870;2022-08-04T03:01:38;4.05;;;3.05;;
7116;SDS011;3600;48.568;7.870;2022-08-04T03:07:17;3.15;;;2.63;;
7116;SDS011;3600;48.568;7.870;2022-08-04T03:21:35;5.68;;;3.10;;
7116;SDS011;3600;48.568;7.870;2022-08-04T03:38:34;3.45;;;3.03;;
7116;SDS011;3600;48.568;7.870;2022-08-04T03:47:37;3.42;;;2.85;;
7116;SDS011;3600;48.568;7.870;2022-08-04T03:50:30;3.28;;;3.08;;
7116;SDS011;3600;48.568;7.870;2022-08-04T04:04:51;2.97;;;2.67;;
7116;SDS011;3600;48.568;7.870;2022-08-04T04:10:43;3.90;;;3.25;;
7116;SDS011;3600;48.568;7.870;2022-08-04T04:27:13;4.03;;;3.33;;
7116;SDS011;3600;48.568;7.870;2022-08-04T04:30:00;4.95;;;3.45;;
7116;SDS011;3600;48.568;7.870;2022-08-04T04:35:34;3.42;;;3.13;;
7116;SDS011;3600;48.568;7.870;2022-08-04T04:47:23;5.00;;;3.10;;
7116;SDS011;3600;48.568;7.870;2022-08-04T04:50:19;3.10;;;2.80;;
7116;SDS011;3600;48.568;7.870;2022-08-04T04:53:03;3.03;;;2.78;;
7116;SDS011;3600;48.568;7.870;2022-08-04T04:55:42;5.13;;;3.30;;
7116;SDS011;3600;48.568;7.870;2022-08-04T04:58:18;3.72;;;3.08;;
7116;SDS011;3600;48.568;7.870;2022-08-04T05:15:34;3.08;;;2.88;;
7116;SDS011;3600;48.568;7.870;2022-08-04T05:18:04;2.88;;;2.67;;
7116;SDS011;3600;48.568;7.870;2022-08-04T05:20:33;5.57;;;3.30;;
7116;SDS011;3600;48.568;7.870;2022-08-04T05:23:07;3.00;;;2.80;;
7116;SDS011;3600;48.568;7.870;2022-08-04T05:28:38;3.17;;;2.97;;
7116;SDS011;3600;48.568;7.870;2022-08-04T05:31:15;3.50;;;2.50;;
7116;SDS011;3600;48.568;7.870;2022-08-04T05:33:51;3.55;;;3.10;;
7116;SDS011;3600;48.568;7.870;2022-08-04T05:36:25;4.15;;;3.20;;
7116;SDS011;3600;48.568;7.870;2022-08-04T05:39:09;3.45;;;3.15;;
7116;SDS011;3600;48.568;7.870;2022-08-04T05:41:39;3.10;;;2.90;;
7116;SDS011;3600;48.568;7.870;2022-08-04T05:44:11;3.55;;;3.25;;
7116;SDS011;3600;48.568;7.870;2022-08-04T05:46:40;4.47;;;2.85;;
7116;SDS011;3600;48.568;7.870;2022-08-04T05:49:11;3.03;;;2.75;;
7116;SDS011;3600;48.568;7.870;2022-08-04T05:51:46;3.28;;;2.97;;
7116;SDS011;3600;48.568;7.870;2022-08-04T05:54:14;6.03;;;2.90;;
7116;SDS011;3600;48.568;7.870;2022-08-04T05:56:42;3.10;;;2.88;;
7116;SDS011;3600;48.568;7.870;2022-08-04T05:59:09;5.15;;;2.80;;
7116;SDS011;3600;48.568;7.870;2022-08-04T06:01:38;3.42;;;3.05;;
7116;SDS011;3600;48.568;7.870;2022-08-04T06:04:22;4.05;;;3.50;;
7116;SDS011;3600;48.568;7.870;2022-08-04T06:06:55;3.33;;;2.72;;
7116;SDS011;3600;48.568;7.870;2022-08-04T06:09:22;6.10;;;3.30;;
7116;SDS011;3600;48.568;7.870;2022-08-04T06:11:49;3.05;;;2.78;;
7116;SDS011;3600;48.568;7.870;2022-08-04T06:14:34;3.35;;;3.15;;
7116;SDS011;3600;48.568;7.870;2022-08-04T06:17:06;4.25;;;2.92;;
7116;SDS011;3600;48.568;7.870;2022-08-04T06:19:55;4.03;;;3.40;;
7116;SDS011;3600;48.568;7.870;2022-08-04T06:22:44;5.78;;;3.38;;
7116;SDS011;3600;48.568;7.870;2022-08-04T06:25:15;3.35;;;3.15;;
7116;SDS011;3600;48.568;7.870;2022-08-04T06:27:47;3.50;;;2.92;;
7116;SDS011;3600;48.568;7.870;2022-08-04T06:30:15;3.60;;;3.28;;
7116;SDS011;3600;48.568;7.870;2022-08-04T06:32:44;3.38;;;3.13;;
7116;SDS011;3600;48.568;7.870;2022-08-04T06:35:17;3.13;;;2.80;;
7116;SDS011;3600;48.568;7.870;2022-08-04T06:37:45;3.72;;;3.25;;
7116;SDS011;3600;48.568;7.870;2022-08-04T06:40:15;3.30;;;3.00;;
7116;SDS011;3600;48.568;7.870;2022-08-04T06:43:02;3.55;;;2.80;;
7116;SDS011;3600;48.568;7.870;2022-08-04T06:45:32;3.00;;;2.70;;
7116;SDS011;3600;48.568;7.870;2022-08-04T06:48:02;3.63;;;2.95;;
7116;SDS011;3600;48.568;7.870;2022-08-04T06:50:32;4.97;;;3.10;;
7116;SDS011;3600;48.568;7.870;2022-08-04T06:53:20;3.35;;;3.05;;
7116;SDS011;3600;48.568;7.870;2022-08-04T06:55:47;3.05;;;2.75;;
7116;SDS011;3600;48.568;7.870;2022-08-04T06:58:15;3.50;;;3.25;;
7116;SDS011;3600;48.568;7.870;2022-08-04T07:00:44;3.78;;;2.80;;
7116;SDS011;3600;48.568;7.870;2022-08-04T07:03:12;3.05;;;2.85;;
7116;SDS011;3600;48.568;7.870;2022-08-04T07:05:42;2.70;;;2.50;;
7116;SDS011;3600;48.568;7.870;2022-08-04T07:08:11;3.20;;;3.00;;
7116;SDS011;3600;48.568;7.870;2022-08-04T07:10:38;3.30;;;3.10;;
7116;SDS011;3600;48.568;7.870;2022-08-04T07:13:06;4.55;;;3.42;;
7116;SDS011;3600;48.568;7.870;2022-08-04T07:15:34;3.38;;;3.10;;
7116;SDS011;3600;48.568;7.870;2022-08-04T07:18:04;3.45;;;3.15;;
7116;SDS011;3600;48.568;7.870;2022-08-04T07:20:31;3.85;;;2.75;;
7116;SDS011;3600;48.568;7.870;2022-08-04T07:23:04;3.20;;;2.90;;
7116;SDS011;3600;48.568;7.870;2022-08-04T07:25:33;4.38;;;3.05;;
7116;SDS011;3600;48.568;7.870;2022-08-04T07:28:21;2.88;;;2.67;;
7116;SDS011;3600;48.568;7.870;2022-08-04T07:30:53;3.20;;;2.70;;
7116;SDS011;3600;48.568;7.870;2022-08-04T07:33:22;2.70;;;2.50;;
7116;SDS011;3600;48.568;7.870;2022-08-04T07:35:51;2.83;;;2.63;;
7116;SDS011;3600;48.568;7.870;2022-08-04T07:38:36;3.63;;;3.00;;
7116;SDS011;3600;48.568;7.870;2022-08-04T07:41:19;3.10;;;2.80;;
7116;SDS011;3600;48.568;7.870;2022-08-04T07:44:04;3.38;;;3.08;;
7116;SDS011;3600;48.568;7.870;2022-08-04T07:46:33;3.15;;;2.55;;
7116;SDS011;3600;48.568;7.870;2022-08-04T07:49:00;3.60;;;3.10;;
7116;SDS011;3600;48.568;7.870;2022-08-04T07:51:28;3.10;;;2.88;;
7116;SDS011;3600;48.568;7.870;2022-08-04T07:53:57;5.65;;;2.85;;
7116;SDS011;3600;48.568;7.870;2022-08-04T07:56:25;4.53;;;2.85;;
7116;SDS011;3600;48.568;7.870;2022-08-04T07:58:53;3.53;;;2.90;;
7116;SDS011;3600;48.568;7.870;2022-08-04T08:01:24;2.75;;;2.50;;
7116;SDS011;3600;48.568;7.870;2022-08-04T08:03:52;3.25;;;2.60;;
7116;SDS011;3600;48.568;7.870;2022-08-04T08:06:21;3.90;;;2.80;;
7116;SDS011;3600;48.568;7.870;2022-08-04T08:08:59;4.22;;;3.00;;
7116;SDS011;3600;48.568;7.870;2022-08-04T08:11:39;4.50;;;2.72;;
7116;SDS011;3600;48.568;7.870;2022-08-04T08:14:30;6.25;;;2.60;;
7116;SDS011;3600;48.568;7.870;2022-08-04T08:16:58;3.30;;;2.97;;
7116;SDS011;3600;48.568;7.870;2022-08-04T08:19:28;2.95;;;2.75;;
7116;SDS011;3600;48.568;7.870;2022-08-04T08:21:55;4.30;;;3.05;;
7116;SDS011;3600;48.568;7.870;2022-08-04T08:24:25;3.00;;;2.80;;
7116;SDS011;3600;48.568;7.870;2022-08-04T08:26:52;3.55;;;2.85;;
7116;SDS011;3600;48.568;7.870;2022-08-04T08:29:19;3.00;;;2.80;;
7116;SDS011;3600;48.568;7.870;2022-08-04T08:31:46;3.03;;;2.78;;
7116;SDS011;3600;48.568;7.870;2022-08-04T08:34:23;3.60;;;2.80;;
7116;SDS011;3600;48.568;7.870;2022-08-04T08:39:45;2.90;;;2.60;;
7116;SDS011;3600;48.568;7.870;2022-08-04T08:42:35;3.30;;;3.00;;
7116;SDS011;3600;48.568;7.870;2022-08-04T08:45:20;6.03;;;2.70;;
7116;SDS011;3600;48.568;7.870;2022-08-04T08:56:11;3.03;;;2.83;;
7116;SDS011;3600;48.568;7.870;2022-08-04T09:01:48;3.22;;;3.03;;
7116;SDS011;3600;48.568;7.870;2022-08-04T09:07:25;2.83;;;2.63;;
7116;SDS011;3600;48.568;7.870;2022-08-04T09:12:52;2.85;;;2.60;;
7116;SDS011;3600;48.568;7.870;2022-08-04T09:20:53;5.80;;;2.58;;
7116;SDS011;3600;48.568;7.870;2022-08-04T09:26:26;3.40;;;2.63;;
7116;SDS011;3600;48.568;7.870;2022-08-04T09:29:04;4.28;;;2.65;;
7116;SDS011;3600;48.568;7.870;2022-08-04T09:31:53;3.78;;;2.75;;
7116;SDS011;3600;48.568;7.870;2022-08-04T09:37:41;3.03;;;2.83;;
7116;SDS011;3600;48.568;7.870;2022-08-04T09:40:22;4.53;;;2.50;;
7116;SDS011;3600;48.568;7.870;2022-08-04T09:46:26;3.07;;;2.67;;
7116;SDS011;3600;48.568;7.870;2022-08-04T09:54:31;3.97;;;2.47;;
7116;SDS011;3600;48.568;7.870;2022-08-04T09:57:30;2.80;;;2.60;;
7116;SDS011;3600;48.568;7.870;2022-08-04T10:02:38;3.17;;;2.30;;
7116;SDS011;3600;48.568;7.870;2022-08-04T10:05:09;3.60;;;2.55;;
7116;SDS011;3600;48.568;7.870;2022-08-04T10:13:47;4.55;;;2.35;;
7116;SDS011;3600;48.568;7.870;2022-08-04T10:30:19;2.70;;;2.50;;
7116;SDS011;3600;48.568;7.870;2022-08-04T10:35:34;2.28;;;2.17;;
7116;SDS011;3600;48.568;7.870;2022-08-04T10:43:40;2.30;;;2.10;;
7116;SDS011;3600;48.568;7.870;2022-08-04T10:46:18;2.33;;;2.13;;
7116;SDS011;3600;48.568;7.870;2022-08-04T10:48:57;2.67;;;2.45;;
7116;SDS011;3600;48.568;7.870;2022-08-04T10:51:34;2.15;;;2.05;;
7116;SDS011;3600;48.568;7.870;2022-08-04T10:56:55;2.50;;;2.08;;
7116;SDS011;3600;48.568;7.870;2022-08-04T10:59:46;3.25;;;2.40;;
7116;SDS011;3600;48.568;7.870;2022-08-04T11:07:52;2.47;;;1.63;;
7116;SDS011;3600;48.568;7.870;2022-08-04T11:10:36;1.70;;;1.60;;
7116;SDS011;3600;48.568;7.870;2022-08-04T11:13:10;1.58;;;1.48;;
7116;SDS011;3600;48.568;7.870;2022-08-04T11:15:55;1.58;;;1.48;;
7116;SDS011;3600;48.568;7.870;2022-08-04T11:18:31;3.00;;;1.80;;
7116;SDS011;3600;48.568;7.870;2022-08-04T11:21:19;1.77;;;1.67;;
7116;SDS011;3600;48.568;7.870;2022-08-04T11:23:53;2.13;;;1.98;;
7116;SDS011;3600;48.568;7.870;2022-08-04T11:27:10;2.33;;;1.77;;
7116;SDS011;3600;48.568;7.870;2022-08-04T11:32:16;2.17;;;1.48;;
7116;SDS011;3600;48.568;7.870;2022-08-04T11:34:52;1.80;;;1.70;;
7116;SDS011;3600;48.568;7.870;2022-08-04T11:37:26;1.63;;;1.52;;
7116;SDS011;3600;48.568;7.870;2022-08-04T11:40:35;1.55;;;1.45;;
7116;SDS011;3600;48.568;7.870;2022-08-04T11:43:00;1.73;;;1.63;;
7116;SDS011;3600;48.568;7.870;2022-08-04T11:45:40;1.58;;;1.27;;
7116;SDS011;3600;48.568;7.870;2022-08-04T11:48:16;2.83;;;1.20;;
7116;SDS011;3600;48.568;7.870;2022-08-04T11:50:49;1.60;;;1.50;;
7116;SDS011;3600;48.568;7.870;2022-08-04T11:53:20;1.40;;;1.30;;
7116;SDS011;3600;48.568;7.870;2022-08-04T11:55:49;1.35;;;1.20;;
7116;SDS011;3600;48.568;7.870;2022-08-04T11:58:34;2.95;;;1.25;;
7116;SDS011;3600;48.568;7.870;2022-08-04T12:01:04;1.88;;;1.33;;
7116;SDS011;3600;48.568;7.870;2022-08-04T12:03:38;1.20;;;1.10;;
7116;SDS011;3600;48.568;7.870;2022-08-04T12:06:50;1.20;;;1.20;;
7116;SDS011;3600;48.568;7.870;2022-08-04T12:10:04;1.35;;;1.27;;
7116;SDS011;3600;48.568;7.870;2022-08-04T12:13:09;1.42;;;1.30;;
7116;SDS011;3600;48.568;7.870;2022-08-04T12:15:56;1.25;;;1.15;;
7116;SDS011;3600;48.568;7.870;2022-08-04T12:18:33;1.73;;;1.25;;
7116;SDS011;3600;48.568;7.870;2022-08-04T12:21:17;2.00;;;1.60;;
7116;SDS011;3600;48.568;7.870;2022-08-04T12:24:02;1.50;;;1.40;;
7116;SDS011;3600;48.568;7.870;2022-08-04T12:26:37;1.67;;;1.17;;
7116;SDS011;3600;48.568;7.870;2022-08-04T12:29:10;1.42;;;1.33;;
7116;SDS011;3600;48.568;7.870;2022-08-04T12:31:46;1.40;;;1.30;;
7116;SDS011;3600;48.568;7.870;2022-08-04T12:34:19;1.63;;;1.45;;
7116;SDS011;3600;48.568;7.870;2022-08-04T12:39:36;2.75;;;1.20;;
7116;SDS011;3600;48.568;7.870;2022-08-04T12:45:25;1.42;;;1.33;;
7116;SDS011;3600;48.568;7.870;2022-08-04T12:47:55;1.70;;;1.60;;
7116;SDS011;3600;48.568;7.870;2022-08-04T12:50:24;1.45;;;1.35;;
7116;SDS011;3600;48.568;7.870;2022-08-04T12:52:53;1.55;;;1.42;;
7116;SDS011;3600;48.568;7.870;2022-08-04T12:55:30;1.60;;;1.50;;
7116;SDS011;3600;48.568;7.870;2022-08-04T12:58:01;2.70;;;1.60;;
7116;SDS011;3600;48.568;7.870;2022-08-04T13:00:33;1.48;;;1.48;;
7116;SDS011;3600;48.568;7.870;2022-08-04T13:03:13;1.60;;;1.50;;
7116;SDS011;3600;48.568;7.870;2022-08-04T13:05:41;2.95;;;1.50;;
7116;SDS011;3600;48.568;7.870;2022-08-04T13:08:10;2.03;;;1.48;;
7116;SDS011;3600;48.568;7.870;2022-08-04T13:10:39;1.45;;;1.35;;
7116;SDS011;3600;48.568;7.870;2022-08-04T13:13:11;3.53;;;1.50;;
7116;SDS011;3600;48.568;7.870;2022-08-04T13:15:41;3.08;;;1.90;;
7116;SDS011;3600;48.568;7.870;2022-08-04T13:18:21;1.92;;;1.17;;
7116;SDS011;3600;48.568;7.870;2022-08-04T13:20:55;2.17;;;1.70;;
7116;SDS011;3600;48.568;7.870;2022-08-04T13:23:52;1.40;;;1.30;;
7116;SDS011;3600;48.568;7.870;2022-08-04T13:26:54;3.05;;;1.70;;
7116;SDS011;3600;48.568;7.870;2022-08-04T13:29:36;2.75;;;2.00;;
7116;SDS011;3600;48.568;7.870;2022-08-04T13:32:26;1.80;;;1.70;;
7116;SDS011;3600;48.568;7.870;2022-08-04T13:34:54;1.67;;;1.58;;
7116;SDS011;3600;48.568;7.870;2022-08-04T13:37:35;1.70;;;1.60;;
7116;SDS011;3600;48.568;7.870;2022-08-04T13:40:05;1.83;;;1.70;;
7116;SDS011;3600;48.568;7.870;2022-08-04T13:42:35;1.77;;;1.67;;
7116;SDS011;3600;48.568;7.870;2022-08-04T13:45:05;1.90;;;1.67;;
7116;SDS011;3600;48.568;7.870;2022-08-04T13:47:34;1.77;;;1.67;;
7116;SDS011;3600;48.568;7.870;2022-08-04T13:50:09;3.78;;;1.95;;
7116;SDS011;3600;48.568;7.870;2022-08-04T13:52:50;2.65;;;2.20;;
7116;SDS011;3600;48.568;7.870;2022-08-04T13:55:20;2.17;;;1.92;;
7116;SDS011;3600;48.568;7.870;2022-08-04T13:57:54;3.13;;;1.80;;
7116;SDS011;3600;48.568;7.870;2022-08-04T14:00:24;2.45;;;1.70;;
7116;SDS011;3600;48.568;7.870;2022-08-04T14:03:02;2.08;;;1.92;;
7116;SDS011;3600;48.568;7.870;2022-08-04T14:08:53;2.20;;;2.10;;
7116;SDS011;3600;48.568;7.870;2022-08-04T14:11:45;1.95;;;1.75;;
7116;SDS011;3600;48.568;7.870;2022-08-04T14:14:33;1.80;;;1.70;;
7116;SDS011;3600;48.568;7.870;2022-08-04T14:17:08;5.18;;;1.80;;
7116;SDS011;3600;48.568;7.870;2022-08-04T14:19:59;4.05;;;1.70;;
7116;SDS011;3600;48.568;7.870;2022-08-04T14:22:29;1.98;;;1.70;;
7116;SDS011;3600;48.568;7.870;2022-08-04T14:25:00;2.58;;;1.70;;
7116;SDS011;3600;48.568;7.870;2022-08-04T14:32:52;1.75;;;1.65;;
7116;SDS011;3600;48.568;7.870;2022-08-04T14:35:23;2.13;;;1.92;;
7116;SDS011;3600;48.568;7.870;2022-08-04T14:38:12;2.65;;;1.90;;
7116;SDS011;3600;48.568;7.870;2022-08-04T14:40:39;2.50;;;1.90;;
7116;SDS011;3600;48.568;7.870;2022-08-04T14:43:07;2.10;;;2.00;;
7116;SDS011;3600;48.568;7.870;2022-08-04T14:45:38;1.95;;;1.85;;
7116;SDS011;3600;48.568;7.870;2022-08-04T14:48:20;1.90;;;1.70;;
7116;SDS011;3600;48.568;7.870;2022-08-04T14:50:48;2.90;;;2.03;;
7116;SDS011;3600;48.568;7.870;2022-08-04T14:53:17;2.05;;;1.95;;
7116;SDS011;3600;48.568;7.870;2022-08-04T14:55:52;2.88;;;1.83;;
7116;SDS011;3600;48.568;7.870;2022-08-04T14:58:31;2.33;;;1.95;;
7116;SDS011;3600;48.568;7.870;2022-08-04T15:01:09;2.03;;;1.92;;
7116;SDS011;3600;48.568;7.870;2022-08-04T15:03:39;2.22;;;1.98;;
7116;SDS011;3600;48.568;7.870;2022-08-04T15:06:22;2.20;;;2.00;;
7116;SDS011;3600;48.568;7.870;2022-08-04T15:08:52;2.08;;;1.80;;
7116;SDS011;3600;48.568;7.870;2022-08-04T15:11:21;1.70;;;1.60;;
7116;SDS011;3600;48.568;7.870;2022-08-04T15:13:50;2.00;;;1.90;;
7116;SDS011;3600;48.568;7.870;2022-08-04T15:16:19;1.98;;;1.88;;
7116;SDS011;3600;48.568;7.870;2022-08-04T15:18:46;2.17;;;1.98;;
7116;SDS011;3600;48.568;7.870;2022-08-04T15:21:15;2.75;;;1.80;;
7116;SDS011;3600;48.568;7.870;2022-08-04T15:23:42;1.73;;;1.63;;
7116;SDS011;3600;48.568;7.870;2022-08-04T15:26:14;2.20;;;2.10;;
7116;SDS011;3600;48.568;7.870;2022-08-04T15:28:46;2.10;;;2.00;;
7116;SDS011;3600;48.568;7.870;2022-08-04T15:31:16;2.38;;;1.65;;
7116;SDS011;3600;48.568;7.870;2022-08-04T15:34:06;2.00;;;1.90;;
7116;SDS011;3600;48.568;7.870;2022-08-04T15:36:47;2.63;;;1.70;;
7116;SDS011;3600;48.568;7.870;2022-08-04T15:39:33;2.88;;;1.83;;
7116;SDS011;3600;48.568;7.870;2022-08-04T15:42:13;1.88;;;1.77;;
7116;SDS011;3600;48.568;7.870;2022-08-04T15:47:16;1.95;;;1.80;;
7116;SDS011;3600;48.568;7.870;2022-08-04T15:49:44;2.05;;;1.67;;
7116;SDS011;3600;48.568;7.870;2022-08-04T15:52:12;2.90;;;1.77;;
7116;SDS011;3600;48.568;7.870;2022-08-04T15:54:44;1.83;;;1.60;;
7116;SDS011;3600;48.568;7.870;2022-08-04T15:57:18;3.08;;;2.05;;
7116;SDS011;3600;48.568;7.870;2022-08-04T16:00:24;2.20;;;2.00;;
7116;SDS011;3600;48.568;7.870;2022-08-04T16:02:51;2.00;;;1.88;;
7116;SDS011;3600;48.568;7.870;2022-08-04T16:07:55;3.65;;;2.05;;
7116;SDS011;3600;48.568;7.870;2022-08-04T16:10:36;3.67;;;2.10;;
7116;SDS011;3600;48.568;7.870;2022-08-04T16:13:06;2.75;;;2.15;;
7116;SDS011;3600;48.568;7.870;2022-08-04T16:15:36;2.03;;;1.85;;
7116;SDS011;3600;48.568;7.870;2022-08-04T16:18:06;1.98;;;1.77;;
7116;SDS011;3600;48.568;7.870;2022-08-04T16:20:39;4.45;;;1.65;;
7116;SDS011;3600;48.568;7.870;2022-08-04T16:26:40;2.58;;;1.70;;
7116;SDS011;3600;48.568;7.870;2022-08-04T16:37:20;1.80;;;1.70;;
7116;SDS011;3600;48.568;7.870;2022-08-04T16:43:15;1.85;;;1.75;;
7116;SDS011;3600;48.568;7.870;2022-08-04T16:48:16;1.83;;;1.73;;
7116;SDS011;3600;48.568;7.870;2022-08-04T16:53:14;1.73;;;1.60;;
7116;SDS011;3600;48.568;7.870;2022-08-04T16:56:04;1.58;;;1.52;;
7116;SDS011;3600;48.568;7.870;2022-08-04T16:58:32;1.83;;;1.73;;
7116;SDS011;3600;48.568;7.870;2022-08-04T17:01:05;1.67;;;1.58;;
7116;SDS011;3600;48.568;7.870;2022-08-04T17:03:35;3.85;;;1.58;;
7116;SDS011;3600;48.568;7.870;2022-08-04T17:06:04;2.88;;;1.50;;
7116;SDS011;3600;48.568;7.870;2022-08-04T17:08:32;1.92;;;1.83;;
7116;SDS011;3600;48.568;7.870;2022-08-04T17:11:00;2.35;;;2.00;;
7116;SDS011;3600;48.568;7.870;2022-08-04T17:13:35;1.70;;;1.60;;
7116;SDS011;3600;48.568;7.870;2022-08-04T17:16:23;3.33;;;1.92;;
7116;SDS011;3600;48.568;7.870;2022-08-04T17:18:54;3.58;;;1.70;;
7116;SDS011;3600;48.568;7.870;2022-08-04T17:21:22;1.60;;;1.50;;
7116;SDS011;3600;48.568;7.870;2022-08-04T17:23:52;2.13;;;1.80;;
7116;SDS011;3600;48.568;7.870;2022-08-04T17:26:40;2.55;;;1.45;;
7116;SDS011;3600;48.568;7.870;2022-08-04T17:29:19;1.95;;;1.70;;
7116;SDS011;3600;48.568;7.870;2022-08-04T17:32:16;2.05;;;1.92;;
7116;SDS011;3600;48.568;7.870;2022-08-04T17:34:47;1.90;;;1.80;;
7116;SDS011;3600;48.568;7.870;2022-08-04T17:37:16;3.08;;;1.92;;
7116;SDS011;3600;48.568;7.870;2022-08-04T17:40:10;3.83;;;2.05;;
7116;SDS011;3600;48.568;7.870;2022-08-04T17:42:43;1.92;;;1.83;;
7116;SDS011;3600;48.568;7.870;2022-08-04T17:45:12;2.10;;;2.00;;
7116;SDS011;3600;48.568;7.870;2022-08-04T17:48:02;2.70;;;1.80;;
7116;SDS011;3600;48.568;7.870;2022-08-04T17:50:34;2.50;;;1.90;;
7116;SDS011;3600;48.568;7.870;2022-08-04T17:53:08;4.43;;;1.92;;
7116;SDS011;3600;48.568;7.870;2022-08-04T17:58:13;2.13;;;2.03;;
7116;SDS011;3600;48.568;7.870;2022-08-04T18:00:47;2.65;;;1.80;;
7116;SDS011;3600;48.568;7.870;2022-08-04T18:03:42;1.90;;;1.80;;
7116;SDS011;3600;48.568;7.870;2022-08-04T18:06:17;5.38;;;2.15;;
7116;SDS011;3600;48.568;7.870;2022-08-04T18:08:50;2.75;;;1.73;;
7116;SDS011;3600;48.568;7.870;2022-08-04T18:11:22;2.25;;;1.80;;
7116;SDS011;3600;48.568;7.870;2022-08-04T18:13:54;2.10;;;2.00;;
7116;SDS011;3600;48.568;7.870;2022-08-04T18:16:22;1.98;;;1.88;;
7116;SDS011;3600;48.568;7.870;2022-08-04T18:19:11;2.72;;;1.90;;
7116;SDS011;3600;48.568;7.870;2022-08-04T18:21:39;2.30;;;2.00;;
7116;SDS011;3600;48.568;7.870;2022-08-04T18:24:25;2.30;;;1.92;;
7116;SDS011;3600;48.568;7.870;2022-08-04T18:27:14;3.13;;;2.38;;
7116;SDS011;3600;48.568;7.870;2022-08-04T18:29:42;2.22;;;2.08;;
7116;SDS011;3600;48.568;7.870;2022-08-04T18:32:28;3.10;;;2.90;;
7116;SDS011;3600;48.568;7.870;2022-08-04T18:34:59;3.50;;;3.20;;
7116;SDS011;3600;48.568;7.870;2022-08-04T18:37:32;3.05;;;2.85;;
7116;SDS011;3600;48.568;7.870;2022-08-04T18:40:20;4.70;;;2.58;;
7116;SDS011;3600;48.568;7.870;2022-08-04T18:43:00;3.15;;;2.85;;
7116;SDS011;3600;48.568;7.870;2022-08-04T18:45:28;3.55;;;3.22;;
7116;SDS011;3600;48.568;7.870;2022-08-04T18:47:59;3.75;;;3.00;;
7116;SDS011;3600;48.568;7.870;2022-08-04T18:50:26;6.05;;;3.10;;
7116;SDS011;3600;48.568;7.870;2022-08-04T18:53:14;3.50;;;3.05;;
7116;SDS011;3600;48.568;7.870;2022-08-04T18:55:41;6.55;;;3.72;;
7116;SDS011;3600;48.568;7.870;2022-08-04T18:58:23;4.20;;;3.65;;
7116;SDS011;3600;48.568;7.870;2022-08-04T19:00:53;6.38;;;2.95;;
7116;SDS011;3600;48.568;7.870;2022-08-04T19:03:21;5.40;;;2.97;;
7116;SDS011;3600;48.568;7.870;2022-08-04T19:05:49;2.83;;;2.60;;
7116;SDS011;3600;48.568;7.870;2022-08-04T19:08:17;3.17;;;2.80;;
7116;SDS011;3600;48.568;7.870;2022-08-04T19:11:00;4.00;;;3.00;;
7116;SDS011;3600;48.568;7.870;2022-08-04T19:13:47;4.80;;;2.78;;
7116;SDS011;3600;48.568;7.870;2022-08-04T19:16:27;4.63;;;2.85;;
7116;SDS011;3600;48.568;7.870;2022-08-04T19:18:56;7.00;;;2.88;;
7116;SDS011;3600;48.568;7.870;2022-08-04T19:21:23;2.88;;;2.60;;
7116;SDS011;3600;48.568;7.870;2022-08-04T19:24:10;6.68;;;4.35;;
7116;SDS011;3600;48.568;7.870;2022-08-04T19:26:59;4.93;;;3.50;;
7116;SDS011;3600;48.568;7.870;2022-08-04T19:29:33;6.10;;;4.53;;
7116;SDS011;3600;48.568;7.870;2022-08-04T19:32:05;6.53;;;3.65;;
7116;SDS011;3600;48.568;7.870;2022-08-04T19:34:41;4.32;;;3.35;;
7116;SDS011;3600;48.568;7.870;2022-08-04T19:37:13;3.55;;;3.20;;
7116;SDS011;3600;48.568;7.870;2022-08-04T19:40:02;5.80;;;3.10;;
7116;SDS011;3600;48.568;7.870;2022-08-04T19:42:30;3.83;;;2.80;;
7116;SDS011;3600;48.568;7.870;2022-08-04T19:44:57;4.25;;;2.70;;
7116;SDS011;3600;48.568;7.870;2022-08-04T19:47:24;2.30;;;2.20;;
7116;SDS011;3600;48.568;7.870;2022-08-04T19:50:11;2.15;;;2.05;;
7116;SDS011;3600;48.568;7.870;2022-08-04T19:52:38;2.85;;;2.53;;
7116;SDS011;3600;48.568;7.870;2022-08-04T19:55:16;3.42;;;2.30;;
7116;SDS011;3600;48.568;7.870;2022-08-04T19:57:47;3.70;;;2.40;;
7116;SDS011;3600;48.568;7.870;2022-08-04T20:00:15;2.50;;;2.28;;
7116;SDS011;3600;48.568;7.870;2022-08-04T20:02:59;3.90;;;2.55;;
7116;SDS011;3600;48.568;7.870;2022-08-04T20:05:28;5.13;;;4.63;;
7116;SDS011;3600;48.568;7.870;2022-08-04T20:08:15;5.28;;;4.55;;
7116;SDS011;3600;48.568;7.870;2022-08-04T20:10:42;3.30;;;3.00;;
7116;SDS011;3600;48.568;7.870;2022-08-04T20:13:18;3.33;;;2.97;;
7116;SDS011;3600;48.568;7.870;2022-08-04T20:15:46;7.10;;;2.85;;
7116;SDS011;3600;48.568;7.870;2022-08-04T20:18:24;4.07;;;2.72;;